sensor_id;sensor_type;location;lat;lon;timestamp;temperature;humidity
40504;DHT22;42292;49.048;8.374;2022-07-29T00:01:28;21.90;99.90
40504;DHT22;42292;49.048;8.374;2022-07-29T00:03:58;21.80;99.90
40504;DHT22;42292;49.048;8.374;2022-07-29T00:06:24;21.70;99.90
40504;DHT22;42292;49.048;8.374;2022-07-29T00:08:49;21.70;99.90
40504;DHT22;42292;49.048;8.374;2022-07-29T00:11:15;21.60;99.90
40504;DHT22;42292;49.048;8.374;2022-07-29T00:13:45;21.40;99.90
40504;DHT22;42292;49.048;8.374;2022-07-29T00:16:11;21.40;99.90
40504;DHT22;42292;49.048;8.374;2022-07-29T00:18:38;21.30;99.90
40504;DHT22;42292;49.048;8.374;2022-07-29T00:21:04;21.30;99.90
40504;DHT22;42292;49.048;8.374;2022-07-29T00:23:35;21.30;99.90
40504;DHT22;42292;49.048;8.374;2022-07-29T00:26:00;21.40;99.90
40504;DHT22;42292;49.048;8.374;2022-07-29T00:28:26;21.30;99.90
40504;DHT22;42292;49.048;8.374;2022-07-29T00:30:52;21.20;99.90
40504;DHT22;42292;49.048;8.374;2022-07-29T00:33:17;21.20;99.90
40504;DHT22;42292;49.048;8.374;2022-07-29T00:35:43;21.20;99.90
40504;DHT22;42292;49.048;8.374;2022-07-29T00:38:09;21.10;99.90
40504;DHT22;42292;49.048;8.374;2022-07-29T00:40:35;21.00;99.90
40504;DHT22;42292;49.048;8.374;2022-07-29T00:43:03;20.90;99.90
40504;DHT22;42292;49.048;8.374;2022-07-29T00:45:29;20.90;99.90
40504;DHT22;42292;49.048;8.374;2022-07-29T00:47:55;20.90;99.90
40504;DHT22;42292;49.048;8.374;2022-07-29T00:50:21;20.80;99.90
40504;DHT22;42292;49.048;8.374;2022-07-29T00:52:47;20.70;99.90
40504;DHT22;42292;49.048;8.374;2022-07-29T00:55:16;20.80;99.90
40504;DHT22;42292;49.048;8.374;2022-07-29T00:57:43;20.70;99.90
40504;DHT22;42292;49.048;8.374;2022-07-29T01:00:11;20.60;99.90
40504;DHT22;42292;49.048;8.374;2022-07-29T01:02:38;20.60;99.90
40504;DHT22;42292;49.048;8.374;2022-07-29T01:05:04;20.50;99.90
40504;DHT22;42292;49.048;8.374;2022-07-29T01:07:32;20.40;99.90
40504;DHT22;42292;49.048;8.374;2022-07-29T01:09:59;20.50;99.90
40504;DHT22;42292;49.048;8.374;2022-07-29T01:12:28;20.40;99.90
40504;DHT22;42292;49.048;8.374;2022-07-29T01:14:58;20.30;99.90
40504;DHT22;42292;49.048;8.374;2022-07-29T01:17:36;20.30;99.90
40504;DHT22;42292;49.048;8.374;2022-07-29T01:30:22;20.00;99.90
40504;DHT22;42292;49.048;8.374;2022-07-29T01:32:56;20.00;99.90
40504;DHT22;42292;49.048;8.374;2022-07-29T01:35:26;20.20;99.90
40504;DHT22;42292;49.048;8.374;2022-07-29T01:38:17;20.10;99.90
40504;DHT22;42292;49.048;8.374;2022-07-29T01:40:52;19.90;99.90
40504;DHT22;42292;49.048;8.374;2022-07-29T01:43:32;19.80;99.90
40504;DHT22;42292;49.048;8.374;2022-07-29T01:46:07;19.70;99.90
40504;DHT22;42292;49.048;8.374;2022-07-29T01:48:41;19.70;99.90
40504;DHT22;42292;49.048;8.374;2022-07-29T01:51:19;19.70;99.90
40504;DHT22;42292;49.048;8.374;2022-07-29T01:54:13;19.60;99.90
40504;DHT22;42292;49.048;8.374;2022-07-29T01:56:42;19.60;99.90
40504;DHT22;42292;49.048;8.374;2022-07-29T01:59:12;19.50;99.90
40504;DHT22;42292;49.048;8.374;2022-07-29T02:01:40;19.50;99.90
40504;DHT22;42292;49.048;8.374;2022-07-29T02:04:15;19.40;99.90
40504;DHT22;42292;49.048;8.374;2022-07-29T02:06:42;19.40;99.90
40504;DHT22;42292;49.048;8.374;2022-07-29T02:09:10;19.50;99.90
40504;DHT22;42292;49.048;8.374;2022-07-29T02:11:43;19.50;99.90
40504;DHT22;42292;49.048;8.374;2022-07-29T02:14:14;19.40;99.90
40504;DHT22;42292;49.048;8.374;2022-07-29T02:16:41;19.40;99.90
40504;DHT22;42292;49.048;8.374;2022-07-29T02:19:08;19.40;99.90
40504;DHT22;42292;49.048;8.374;2022-07-29T02:21:37;19.30;99.90
40504;DHT22;42292;49.048;8.374;2022-07-29T02:24:04;19.30;99.90
40504;DHT22;42292;49.048;8.374;2022-07-29T02:26:33;19.30;99.90
40504;DHT22;42292;49.048;8.374;2022-07-29T02:29:00;19.30;99.90
40504;DHT22;42292;49.048;8.374;2022-07-29T02:31:33;19.30;99.90
40504;DHT22;42292;49.048;8.374;2022-07-29T02:34:03;19.30;99.90
40504;DHT22;42292;49.048;8.374;2022-07-29T02:36:31;19.30;99.90
40504;DHT22;42292;49.048;8.374;2022-07-29T02:38:59;19.40;99.90
40504;DHT22;42292;49.048;8.374;2022-07-29T02:41:30;19.40;99.90
40504;DHT22;42292;49.048;8.374;2022-07-29T02:44:01;19.40;99.90
40504;DHT22;42292;49.048;8.374;2022-07-29T02:46:31;19.30;99.90
40504;DHT22;42292;49.048;8.374;2022-07-29T02:51:43;19.20;99.90
40504;DHT22;42292;49.048;8.374;2022-07-29T02:54:22;19.20;99.90
40504;DHT22;42292;49.048;8.374;2022-07-29T02:56:49;19.10;99.90
40504;DHT22;42292;49.048;8.374;2022-07-29T02:59:22;19.00;99.90
40504;DHT22;42292;49.048;8.374;2022-07-29T03:01:49;19.00;99.90
40504;DHT22;42292;49.048;8.374;2022-07-29T03:04:19;18.90;99.90
40504;DHT22;42292;49.048;8.374;2022-07-29T03:06:46;18.90;99.90
40504;DHT22;42292;49.048;8.374;2022-07-29T03:09:15;18.80;99.90
40504;DHT22;42292;49.048;8.374;2022-07-29T03:11:44;18.80;99.90
40504;DHT22;42292;49.048;8.374;2022-07-29T03:14:13;18.80;99.90
40504;DHT22;42292;49.048;8.374;2022-07-29T03:16:39;18.80;99.90
40504;DHT22;42292;49.048;8.374;2022-07-29T03:19:05;18.70;99.90
40504;DHT22;42292;49.048;8.374;2022-07-29T03:21:34;18.70;99.90
40504;DHT22;42292;49.048;8.374;2022-07-29T03:24:00;18.70;99.90
40504;DHT22;42292;49.048;8.374;2022-07-29T03:26:28;18.70;99.90
40504;DHT22;42292;49.048;8.374;2022-07-29T03:28:54;19.00;99.90
40504;DHT22;42292;49.048;8.374;2022-07-29T03:31:22;19.20;99.90
40504;DHT22;42292;49.048;8.374;2022-07-29T03:33:48;19.20;99.90
40504;DHT22;42292;49.048;8.374;2022-07-29T03:36:18;19.10;99.90
40504;DHT22;42292;49.048;8.374;2022-07-29T03:38:47;18.90;99.90
40504;DHT22;42292;49.048;8.374;2022-07-29T03:41:16;18.80;99.90
40504;DHT22;42292;49.048;8.374;2022-07-29T03:43:44;18.70;99.90
40504;DHT22;42292;49.048;8.374;2022-07-29T03:46:11;18.60;99.90
40504;DHT22;42292;49.048;8.374;2022-07-29T03:48:46;18.60;99.90
40504;DHT22;42292;49.048;8.374;2022-07-29T03:51:14;18.60;99.90
40504;DHT22;42292;49.048;8.374;2022-07-29T03:53:40;18.60;99.90
40504;DHT22;42292;49.048;8.374;2022-07-29T03:56:12;18.60;99.90
40504;DHT22;42292;49.048;8.374;2022-07-29T03:58:40;18.70;99.90
40504;DHT22;42292;49.048;8.374;2022-07-29T04:01:06;18.80;99.90
40504;DHT22;42292;49.048;8.374;2022-07-29T04:03:33;18.80;99.90
40504;DHT22;42292;49.048;8.374;2022-07-29T04:06:05;18.80;99.90
40504;DHT22;42292;49.048;8.374;2022-07-29T04:08:34;18.80;99.90
40504;DHT22;42292;49.048;8.374;2022-07-29T04:11:00;18.80;99.90
40504;DHT22;42292;49.048;8.374;2022-07-29T04:13:29;19.00;99.90
40504;DHT22;42292;49.048;8.374;2022-07-29T04:15:55;19.10;99.90
40504;DHT22;42292;49.048;8.374;2022-07-29T04:18:23;19.10;99.90
40504;DHT22;42292;49.048;8.374;2022-07-29T04:20:51;19.00;99.90
40504;DHT22;42292;49.048;8.374;2022-07-29T04:23:17;19.10;99.90
40504;DHT22;42292;49.048;8.374;2022-07-29T04:25:43;19.10;99.90
40504;DHT22;42292;49.048;8.374;2022-07-29T04:28:11;19.30;99.90
40504;DHT22;42292;49.048;8.374;2022-07-29T04:30:37;19.30;99.90
40504;DHT22;42292;49.048;8.374;2022-07-29T04:33:05;19.20;99.90
40504;DHT22;42292;49.048;8.374;2022-07-29T04:35:38;19.20;99.90
40504;DHT22;42292;49.048;8.374;2022-07-29T04:38:06;19.30;99.90
40504;DHT22;42292;49.048;8.374;2022-07-29T04:40:32;19.40;99.90
40504;DHT22;42292;49.048;8.374;2022-07-29T04:42:59;19.50;99.90
40504;DHT22;42292;49.048;8.374;2022-07-29T04:45:28;19.60;99.90
40504;DHT22;42292;49.048;8.374;2022-07-29T04:47:54;19.60;99.90
40504;DHT22;42292;49.048;8.374;2022-07-29T04:50:20;19.50;99.90
40504;DHT22;42292;49.048;8.374;2022-07-29T04:52:52;19.50;99.90
40504;DHT22;42292;49.048;8.374;2022-07-29T04:55:20;19.40;99.90
40504;DHT22;42292;49.048;8.374;2022-07-29T04:57:48;19.40;99.90
40504;DHT22;42292;49.048;8.374;2022-07-29T05:00:17;19.50;99.90
40504;DHT22;42292;49.048;8.374;2022-07-29T05:02:45;19.40;99.90
40504;DHT22;42292;49.048;8.374;2022-07-29T05:05:13;19.50;99.90
40504;DHT22;42292;49.048;8.374;2022-07-29T05:07:38;19.50;99.90
40504;DHT22;42292;49.048;8.374;2022-07-29T05:10:04;19.50;99.90
40504;DHT22;42292;49.048;8.374;2022-07-29T05:12:30;19.30;99.90
40504;DHT22;42292;49.048;8.374;2022-07-29T05:14:55;19.30;99.90
40504;DHT22;42292;49.048;8.374;2022-07-29T05:17:24;19.30;99.90
40504;DHT22;42292;49.048;8.374;2022-07-29T05:19:49;19.20;99.90
40504;DHT22;42292;49.048;8.374;2022-07-29T05:22:19;19.40;99.90
40504;DHT22;42292;49.048;8.374;2022-07-29T05:24:47;19.50;99.90
40504;DHT22;42292;49.048;8.374;2022-07-29T05:27:15;19.80;99.90
40504;DHT22;42292;49.048;8.374;2022-07-29T05:29:43;19.90;99.90
40504;DHT22;42292;49.048;8.374;2022-07-29T05:32:12;20.00;99.90
40504;DHT22;42292;49.048;8.374;2022-07-29T05:34:38;20.00;99.90
40504;DHT22;42292;49.048;8.374;2022-07-29T05:37:08;20.20;99.90
40504;DHT22;42292;49.048;8.374;2022-07-29T05:39:36;20.20;99.90
40504;DHT22;42292;49.048;8.374;2022-07-29T05:42:02;20.50;99.90
40504;DHT22;42292;49.048;8.374;2022-07-29T05:44:29;20.60;99.90
40504;DHT22;42292;49.048;8.374;2022-07-29T05:46:55;20.70;99.90
40504;DHT22;42292;49.048;8.374;2022-07-29T05:49:20;20.90;99.90
40504;DHT22;42292;49.048;8.374;2022-07-29T05:51:46;21.00;99.90
40504;DHT22;42292;49.048;8.374;2022-07-29T05:54:14;20.90;99.90
40504;DHT22;42292;49.048;8.374;2022-07-29T05:56:41;20.90;99.90
40504;DHT22;42292;49.048;8.374;2022-07-29T05:59:09;21.20;99.90
40504;DHT22;42292;49.048;8.374;2022-07-29T06:01:35;21.40;99.90
40504;DHT22;42292;49.048;8.374;2022-07-29T06:04:07;21.40;99.90
40504;DHT22;42292;49.048;8.374;2022-07-29T06:06:34;21.70;99.90
40504;DHT22;42292;49.048;8.374;2022-07-29T06:09:01;21.80;99.90
40504;DHT22;42292;49.048;8.374;2022-07-29T06:11:29;21.90;99.90
40504;DHT22;42292;49.048;8.374;2022-07-29T06:13:55;21.90;99.90
40504;DHT22;42292;49.048;8.374;2022-07-29T06:16:21;21.60;99.90
40504;DHT22;42292;49.048;8.374;2022-07-29T06:18:48;21.50;99.90
40504;DHT22;42292;49.048;8.374;2022-07-29T06:21:14;21.60;99.90
40504;DHT22;42292;49.048;8.374;2022-07-29T06:23:40;21.70;99.90
40504;DHT22;42292;49.048;8.374;2022-07-29T06:26:06;21.90;99.90
40504;DHT22;42292;49.048;8.374;2022-07-29T06:28:33;22.00;99.90
40504;DHT22;42292;49.048;8.374;2022-07-29T06:30:59;22.10;99.90
40504;DHT22;42292;49.048;8.374;2022-07-29T06:33:25;22.20;99.90
40504;DHT22;42292;49.048;8.374;2022-07-29T06:35:50;22.30;99.90
40504;DHT22;42292;49.048;8.374;2022-07-29T06:38:16;22.30;99.90
40504;DHT22;42292;49.048;8.374;2022-07-29T06:40:45;22.60;99.90
40504;DHT22;42292;49.048;8.374;2022-07-29T06:46:10;22.70;99.90
40504;DHT22;42292;49.048;8.374;2022-07-29T06:48:41;22.80;99.90
40504;DHT22;42292;49.048;8.374;2022-07-29T06:51:08;23.00;99.90
40504;DHT22;42292;49.048;8.374;2022-07-29T06:53:37;23.30;99.90
40504;DHT22;42292;49.048;8.374;2022-07-29T06:56:05;23.30;99.90
40504;DHT22;42292;49.048;8.374;2022-07-29T06:58:31;23.30;99.90
40504;DHT22;42292;49.048;8.374;2022-07-29T07:01:00;23.50;99.90
40504;DHT22;42292;49.048;8.374;2022-07-29T07:03:26;23.20;99.90
40504;DHT22;42292;49.048;8.374;2022-07-29T07:05:53;23.20;99.90
40504;DHT22;42292;49.048;8.374;2022-07-29T07:08:19;23.00;99.90
40504;DHT22;42292;49.048;8.374;2022-07-29T07:10:45;23.30;99.90
40504;DHT22;42292;49.048;8.374;2022-07-29T07:13:10;23.60;99.90
40504;DHT22;42292;49.048;8.374;2022-07-29T07:15:37;23.80;99.90
40504;DHT22;42292;49.048;8.374;2022-07-29T07:18:07;23.90;99.90
40504;DHT22;42292;49.048;8.374;2022-07-29T07:20:34;23.90;99.90
40504;DHT22;42292;49.048;8.374;2022-07-29T07:23:02;24.10;99.90
40504;DHT22;42292;49.048;8.374;2022-07-29T07:25:28;24.10;99.90
40504;DHT22;42292;49.048;8.374;2022-07-29T07:27:54;24.10;99.90
40504;DHT22;42292;49.048;8.374;2022-07-29T07:30:20;24.40;99.90
40504;DHT22;42292;49.048;8.374;2022-07-29T07:32:48;24.80;99.90
40504;DHT22;42292;49.048;8.374;2022-07-29T07:35:16;25.20;99.90
40504;DHT22;42292;49.048;8.374;2022-07-29T07:37:44;25.30;99.90
40504;DHT22;42292;49.048;8.374;2022-07-29T07:40:14;25.00;99.90
40504;DHT22;42292;49.048;8.374;2022-07-29T07:42:40;24.70;99.90
40504;DHT22;42292;49.048;8.374;2022-07-29T07:45:07;24.50;99.90
40504;DHT22;42292;49.048;8.374;2022-07-29T07:47:37;24.10;99.90
40504;DHT22;42292;49.048;8.374;2022-07-29T07:50:05;24.30;99.90
40504;DHT22;42292;49.048;8.374;2022-07-29T07:52:31;24.30;99.90
40504;DHT22;42292;49.048;8.374;2022-07-29T07:54:57;24.10;99.90
40504;DHT22;42292;49.048;8.374;2022-07-29T07:57:25;24.20;99.90
40504;DHT22;42292;49.048;8.374;2022-07-29T07:59:53;24.20;99.90
40504;DHT22;42292;49.048;8.374;2022-07-29T08:02:21;24.70;99.90
40504;DHT22;42292;49.048;8.374;2022-07-29T08:04:49;24.80;99.90
40504;DHT22;42292;49.048;8.374;2022-07-29T08:07:15;25.20;99.90
40504;DHT22;42292;49.048;8.374;2022-07-29T08:09:40;25.30;99.90
40504;DHT22;42292;49.048;8.374;2022-07-29T08:12:06;25.20;99.90
40504;DHT22;42292;49.048;8.374;2022-07-29T08:14:32;25.30;99.90
40504;DHT22;42292;49.048;8.374;2022-07-29T08:16:58;24.90;99.90
40504;DHT22;42292;49.048;8.374;2022-07-29T08:19:26;24.70;99.90
40504;DHT22;42292;49.048;8.374;2022-07-29T08:21:52;24.70;99.90
40504;DHT22;42292;49.048;8.374;2022-07-29T08:24:21;24.80;99.90
40504;DHT22;42292;49.048;8.374;2022-07-29T08:27:08;24.90;99.90
40504;DHT22;42292;49.048;8.374;2022-07-29T08:29:36;24.80;99.90
40504;DHT22;42292;49.048;8.374;2022-07-29T08:32:03;25.00;99.90
40504;DHT22;42292;49.048;8.374;2022-07-29T08:34:29;24.90;99.90
40504;DHT22;42292;49.048;8.374;2022-07-29T08:36:59;25.20;99.90
40504;DHT22;42292;49.048;8.374;2022-07-29T08:39:27;25.30;99.90
40504;DHT22;42292;49.048;8.374;2022-07-29T08:41:55;25.30;99.90
40504;DHT22;42292;49.048;8.374;2022-07-29T08:44:21;25.70;99.90
40504;DHT22;42292;49.048;8.374;2022-07-29T08:46:48;26.60;99.90
40504;DHT22;42292;49.048;8.374;2022-07-29T08:49:17;26.80;99.90
40504;DHT22;42292;49.048;8.374;2022-07-29T08:51:45;27.10;99.70
40504;DHT22;42292;49.048;8.374;2022-07-29T08:54:11;26.80;99.20
40504;DHT22;42292;49.048;8.374;2022-07-29T08:56:41;26.50;98.90
40504;DHT22;42292;49.048;8.374;2022-07-29T08:59:08;26.20;99.70
40504;DHT22;42292;49.048;8.374;2022-07-29T09:01:37;26.20;99.40
40504;DHT22;42292;49.048;8.374;2022-07-29T09:04:10;26.00;99.90
40504;DHT22;42292;49.048;8.374;2022-07-29T09:06:37;25.80;99.90
40504;DHT22;42292;49.048;8.374;2022-07-29T09:09:07;26.00;99.90
40504;DHT22;42292;49.048;8.374;2022-07-29T09:11:36;25.70;99.90
40504;DHT22;42292;49.048;8.374;2022-07-29T09:14:02;25.70;99.60
40504;DHT22;42292;49.048;8.374;2022-07-29T09:16:51;26.10;99.50
40504;DHT22;42292;49.048;8.374;2022-07-29T09:19:20;26.20;98.20
40504;DHT22;42292;49.048;8.374;2022-07-29T09:21:46;26.40;98.10
40504;DHT22;42292;49.048;8.374;2022-07-29T09:24:40;26.20;97.60
40504;DHT22;42292;49.048;8.374;2022-07-29T09:29:48;26.10;96.90
40504;DHT22;42292;49.048;8.374;2022-07-29T09:32:20;26.20;97.20
40504;DHT22;42292;49.048;8.374;2022-07-29T09:34:50;26.30;97.10
40504;DHT22;42292;49.048;8.374;2022-07-29T09:37:28;26.20;97.10
40504;DHT22;42292;49.048;8.374;2022-07-29T09:39:54;26.50;96.20
40504;DHT22;42292;49.048;8.374;2022-07-29T09:42:29;26.70;95.60
40504;DHT22;42292;49.048;8.374;2022-07-29T09:44:55;26.90;95.30
40504;DHT22;42292;49.048;8.374;2022-07-29T09:47:21;27.10;94.80
40504;DHT22;42292;49.048;8.374;2022-07-29T09:52:22;27.30;93.20
40504;DHT22;42292;49.048;8.374;2022-07-29T09:54:48;27.20;93.00
40504;DHT22;42292;49.048;8.374;2022-07-29T09:57:27;27.30;93.00
40504;DHT22;42292;49.048;8.374;2022-07-29T09:59:58;27.50;92.90
40504;DHT22;42292;49.048;8.374;2022-07-29T10:02:31;27.60;92.40
40504;DHT22;42292;49.048;8.374;2022-07-29T10:05:02;27.30;92.50
40504;DHT22;42292;49.048;8.374;2022-07-29T10:07:52;27.00;92.90
40504;DHT22;42292;49.048;8.374;2022-07-29T10:10:19;27.10;92.90
40504;DHT22;42292;49.048;8.374;2022-07-29T10:15:18;27.30;92.20
40504;DHT22;42292;49.048;8.374;2022-07-29T10:17:46;27.60;91.90
40504;DHT22;42292;49.048;8.374;2022-07-29T10:20:16;27.70;91.50
40504;DHT22;42292;49.048;8.374;2022-07-29T10:22:41;27.70;91.20
40504;DHT22;42292;49.048;8.374;2022-07-29T10:25:08;27.70;91.10
40504;DHT22;42292;49.048;8.374;2022-07-29T10:27:35;27.80;91.30
40504;DHT22;42292;49.048;8.374;2022-07-29T10:30:06;28.00;91.60
40504;DHT22;42292;49.048;8.374;2022-07-29T10:32:51;28.00;90.80
40504;DHT22;42292;49.048;8.374;2022-07-29T10:35:31;28.00;90.50
40504;DHT22;42292;49.048;8.374;2022-07-29T10:43:40;28.20;89.50
40504;DHT22;42292;49.048;8.374;2022-07-29T10:46:07;28.10;90.00
40504;DHT22;42292;49.048;8.374;2022-07-29T10:48:33;28.10;89.30
40504;DHT22;42292;49.048;8.374;2022-07-29T10:53:48;28.30;88.20
40504;DHT22;42292;49.048;8.374;2022-07-29T10:56:35;28.60;88.50
40504;DHT22;42292;49.048;8.374;2022-07-29T11:01:53;29.50;86.60
40504;DHT22;42292;49.048;8.374;2022-07-29T11:07:12;29.20;84.20
40504;DHT22;42292;49.048;8.374;2022-07-29T11:09:38;29.40;85.30
40504;DHT22;42292;49.048;8.374;2022-07-29T11:15:02;30.30;83.10
40504;DHT22;42292;49.048;8.374;2022-07-29T11:17:28;30.30;81.90
40504;DHT22;42292;49.048;8.374;2022-07-29T11:20:49;29.90;83.10
40504;DHT22;42292;49.048;8.374;2022-07-29T11:23:26;30.10;81.60
40504;DHT22;42292;49.048;8.374;2022-07-29T11:45:21;29.30;80.70
40504;DHT22;42292;49.048;8.374;2022-07-29T11:47:49;29.00;81.20
40504;DHT22;42292;49.048;8.374;2022-07-29T11:50:26;29.00;81.10
40504;DHT22;42292;49.048;8.374;2022-07-29T11:52:53;29.20;80.50
40504;DHT22;42292;49.048;8.374;2022-07-29T11:55:22;29.10;81.00
40504;DHT22;42292;49.048;8.374;2022-07-29T11:57:49;29.70;79.70
40504;DHT22;42292;49.048;8.374;2022-07-29T12:00:35;29.50;79.80
40504;DHT22;42292;49.048;8.374;2022-07-29T12:03:03;29.90;78.90
40504;DHT22;42292;49.048;8.374;2022-07-29T12:05:37;30.10;78.50
40504;DHT22;42292;49.048;8.374;2022-07-29T12:08:14;30.00;78.50
40504;DHT22;42292;49.048;8.374;2022-07-29T12:10:40;30.00;79.10
40504;DHT22;42292;49.048;8.374;2022-07-29T12:13:09;30.60;79.60
40504;DHT22;42292;49.048;8.374;2022-07-29T12:15:35;31.00;77.70
40504;DHT22;42292;49.048;8.374;2022-07-29T12:18:18;31.10;76.30
40504;DHT22;42292;49.048;8.374;2022-07-29T12:20:47;30.90;75.80
40504;DHT22;42292;49.048;8.374;2022-07-29T12:23:16;30.80;76.20
40504;DHT22;42292;49.048;8.374;2022-07-29T12:25:46;30.50;75.80
40504;DHT22;42292;49.048;8.374;2022-07-29T12:28:13;30.40;75.80
40504;DHT22;42292;49.048;8.374;2022-07-29T12:30:47;30.70;74.50
40504;DHT22;42292;49.048;8.374;2022-07-29T12:33:19;30.80;74.80
40504;DHT22;42292;49.048;8.374;2022-07-29T12:35:48;30.90;74.10
40504;DHT22;42292;49.048;8.374;2022-07-29T12:38:15;31.40;72.30
40504;DHT22;42292;49.048;8.374;2022-07-29T12:40:41;31.70;70.10
40504;DHT22;42292;49.048;8.374;2022-07-29T12:43:11;32.20;69.30
40504;DHT22;42292;49.048;8.374;2022-07-29T12:45:38;33.00;68.00
40504;DHT22;42292;49.048;8.374;2022-07-29T12:48:05;33.40;67.70
40504;DHT22;42292;49.048;8.374;2022-07-29T12:50:35;33.10;65.90
40504;DHT22;42292;49.048;8.374;2022-07-29T12:53:13;32.10;66.70
40504;DHT22;42292;49.048;8.374;2022-07-29T12:55:45;31.80;67.20
40504;DHT22;42292;49.048;8.374;2022-07-29T12:58:41;31.60;66.60
40504;DHT22;42292;49.048;8.374;2022-07-29T13:01:15;31.50;66.80
40504;DHT22;42292;49.048;8.374;2022-07-29T13:03:46;31.50;67.60
40504;DHT22;42292;49.048;8.374;2022-07-29T13:06:31;31.70;67.60
40504;DHT22;42292;49.048;8.374;2022-07-29T13:11:45;30.80;68.30
40504;DHT22;42292;49.048;8.374;2022-07-29T13:14:29;30.70;68.60
40504;DHT22;42292;49.048;8.374;2022-07-29T13:17:02;31.00;67.80
40504;DHT22;42292;49.048;8.374;2022-07-29T13:22:02;31.40;68.70
40504;DHT22;42292;49.048;8.374;2022-07-29T13:24:28;31.40;67.30
40504;DHT22;42292;49.048;8.374;2022-07-29T13:26:56;30.80;67.60
40504;DHT22;42292;49.048;8.374;2022-07-29T13:29:24;30.60;68.50
40504;DHT22;42292;49.048;8.374;2022-07-29T13:31:56;30.20;68.40
40504;DHT22;42292;49.048;8.374;2022-07-29T13:34:21;30.00;69.30
40504;DHT22;42292;49.048;8.374;2022-07-29T13:36:51;30.30;68.90
40504;DHT22;42292;49.048;8.374;2022-07-29T13:39:17;30.60;68.30
40504;DHT22;42292;49.048;8.374;2022-07-29T13:41:43;30.20;67.90
40504;DHT22;42292;49.048;8.374;2022-07-29T13:44:08;30.10;68.00
40504;DHT22;42292;49.048;8.374;2022-07-29T13:46:34;30.40;68.70
40504;DHT22;42292;49.048;8.374;2022-07-29T13:49:00;30.50;66.80
40504;DHT22;42292;49.048;8.374;2022-07-29T13:51:26;30.20;66.00
40504;DHT22;42292;49.048;8.374;2022-07-29T13:53:53;30.40;66.70
40504;DHT22;42292;49.048;8.374;2022-07-29T13:56:19;30.80;66.50
40504;DHT22;42292;49.048;8.374;2022-07-29T13:58:47;30.60;65.90
40504;DHT22;42292;49.048;8.374;2022-07-29T14:01:13;30.60;64.00
40504;DHT22;42292;49.048;8.374;2022-07-29T14:03:38;30.70;64.50
40504;DHT22;42292;49.048;8.374;2022-07-29T14:06:06;31.10;64.50
40504;DHT22;42292;49.048;8.374;2022-07-29T14:08:35;31.50;63.50
40504;DHT22;42292;49.048;8.374;2022-07-29T14:11:03;31.20;62.70
40504;DHT22;42292;49.048;8.374;2022-07-29T14:13:29;30.70;63.60
40504;DHT22;42292;49.048;8.374;2022-07-29T14:15:54;30.70;63.80
40504;DHT22;42292;49.048;8.374;2022-07-29T14:18:20;31.00;63.20
40504;DHT22;42292;49.048;8.374;2022-07-29T14:20:46;31.40;62.60
40504;DHT22;42292;49.048;8.374;2022-07-29T14:23:14;31.90;61.00
40504;DHT22;42292;49.048;8.374;2022-07-29T14:25:39;32.20;60.50
40504;DHT22;42292;49.048;8.374;2022-07-29T14:28:05;31.60;59.90
40504;DHT22;42292;49.048;8.374;2022-07-29T14:30:30;31.90;59.10
40504;DHT22;42292;49.048;8.374;2022-07-29T14:32:56;31.70;58.00
40504;DHT22;42292;49.048;8.374;2022-07-29T14:35:22;31.70;57.90
40504;DHT22;42292;49.048;8.374;2022-07-29T14:37:52;31.90;58.30
40504;DHT22;42292;49.048;8.374;2022-07-29T14:40:18;32.00;58.00
40504;DHT22;42292;49.048;8.374;2022-07-29T14:42:43;31.50;58.20
40504;DHT22;42292;49.048;8.374;2022-07-29T14:45:09;31.50;58.50
40504;DHT22;42292;49.048;8.374;2022-07-29T14:47:38;31.50;58.50
40504;DHT22;42292;49.048;8.374;2022-07-29T14:50:05;31.90;58.60
40504;DHT22;42292;49.048;8.374;2022-07-29T14:52:31;32.70;58.10
40504;DHT22;42292;49.048;8.374;2022-07-29T14:54:57;32.30;57.70
40504;DHT22;42292;49.048;8.374;2022-07-29T14:57:23;32.30;56.70
40504;DHT22;42292;49.048;8.374;2022-07-29T14:59:48;32.10;57.70
40504;DHT22;42292;49.048;8.374;2022-07-29T15:02:14;32.40;57.10
40504;DHT22;42292;49.048;8.374;2022-07-29T15:04:40;33.00;56.10
40504;DHT22;42292;49.048;8.374;2022-07-29T15:07:05;34.40;55.50
40504;DHT22;42292;49.048;8.374;2022-07-29T15:09:31;35.20;54.40
40504;DHT22;42292;49.048;8.374;2022-07-29T15:11:58;35.40;53.30
40504;DHT22;42292;49.048;8.374;2022-07-29T15:14:30;35.00;53.10
40504;DHT22;42292;49.048;8.374;2022-07-29T15:16:57;34.30;53.50
40504;DHT22;42292;49.048;8.374;2022-07-29T15:19:22;34.30;54.60
40504;DHT22;42292;49.048;8.374;2022-07-29T15:21:48;34.10;53.30
40504;DHT22;42292;49.048;8.374;2022-07-29T15:24:17;33.30;53.50
40504;DHT22;42292;49.048;8.374;2022-07-29T15:26:43;33.00;53.90
40504;DHT22;42292;49.048;8.374;2022-07-29T15:29:08;33.10;54.20
40504;DHT22;42292;49.048;8.374;2022-07-29T15:31:39;34.30;52.30
40504;DHT22;42292;49.048;8.374;2022-07-29T15:34:05;34.80;51.40
40504;DHT22;42292;49.048;8.374;2022-07-29T15:36:33;36.10;49.60
40504;DHT22;42292;49.048;8.374;2022-07-29T15:38:58;37.00;48.50
40504;DHT22;42292;49.048;8.374;2022-07-29T15:41:24;36.40;49.10
40504;DHT22;42292;49.048;8.374;2022-07-29T15:43:49;36.00;49.80
40504;DHT22;42292;49.048;8.374;2022-07-29T15:46:18;35.60;49.00
40504;DHT22;42292;49.048;8.374;2022-07-29T15:49:04;35.10;49.60
40504;DHT22;42292;49.048;8.374;2022-07-29T15:51:30;34.90;50.80
40504;DHT22;42292;49.048;8.374;2022-07-29T15:54:00;35.50;49.80
40504;DHT22;42292;49.048;8.374;2022-07-29T15:56:29;34.70;49.90
40504;DHT22;42292;49.048;8.374;2022-07-29T15:58:57;33.30;51.70
40504;DHT22;42292;49.048;8.374;2022-07-29T16:01:23;32.60;52.60
40504;DHT22;42292;49.048;8.374;2022-07-29T16:03:49;32.40;53.40
40504;DHT22;42292;49.048;8.374;2022-07-29T16:06:16;32.70;53.40
40504;DHT22;42292;49.048;8.374;2022-07-29T16:08:41;32.60;53.30
40504;DHT22;42292;49.048;8.374;2022-07-29T16:11:07;31.80;53.90
40504;DHT22;42292;49.048;8.374;2022-07-29T16:13:33;31.30;53.80
40504;DHT22;42292;49.048;8.374;2022-07-29T16:15:58;31.00;54.60
40504;DHT22;42292;49.048;8.374;2022-07-29T16:18:29;31.50;54.00
40504;DHT22;42292;49.048;8.374;2022-07-29T16:20:55;32.50;53.30
40504;DHT22;42292;49.048;8.374;2022-07-29T16:23:20;33.20;52.00
40504;DHT22;42292;49.048;8.374;2022-07-29T16:25:46;35.00;49.80
40504;DHT22;42292;49.048;8.374;2022-07-29T16:28:11;34.40;50.00
40504;DHT22;42292;49.048;8.374;2022-07-29T16:30:37;34.60;49.00
40504;DHT22;42292;49.048;8.374;2022-07-29T16:33:03;35.40;48.80
40504;DHT22;42292;49.048;8.374;2022-07-29T16:35:31;36.60;47.80
40504;DHT22;42292;49.048;8.374;2022-07-29T16:37:56;36.30;47.70
40504;DHT22;42292;49.048;8.374;2022-07-29T16:40:25;36.70;47.50
40504;DHT22;42292;49.048;8.374;2022-07-29T16:42:50;38.10;46.00
40504;DHT22;42292;49.048;8.374;2022-07-29T16:45:16;37.60;46.80